La Suprema — IBIL — position and weather

sailwx.info

Track history (hours):
 
Tides and Currents Weather Stations Pressure Air Temp Water Temp Dewpoint Dewpoint Depression Visibility Wind Speed Wind Dir Waves Ship Positions

La Suprema

Last reported at 2016-Aug-24 15:28 UTC. Time now 2016-Aug-24 16:17 UTC.
Position N 44°25' E 008°55'.

Length 211 m; draft 7.5 m.

Type: Passenger vessel. MMSI: 247083700.

Date/timePositionNaut miles runAvg speedWind from/ knotsBaromVisibWave heightAir tempDewpointWater temp
2016-Aug-24 15:28N 44°25' E 008°55'0 0.1
2016-Aug-24 14:33N 44°24' E 008°55'1716.7
2016-Aug-24 13:33N 44°09' E 009°05'2424.3
2016-Aug-24 12:34N 43°47' E 009°16'2424.3
2016-Aug-24 11:34N 43°24' E 009°27'2524.0
2016-Aug-24 10:32N 43°01' E 009°39'31023.9
2016-Aug-23 21:33N 38°34' E 013°07'2424.3
2016-Aug-23 20:33N 38°13' E 013°24'6 5.7
2016-Aug-23 19:33N 38°08' E 013°22'0 0.0
2016-Aug-23 18:32N 38°08' E 013°22'0 0.0
2016-Aug-23 17:32N 38°08' E 013°22'0 0.0
2016-Aug-23 16:32N 38°08' E 013°22'0 0.0
2016-Aug-23 15:31N 38°08' E 013°22'0 0.0
2016-Aug-23 14:28N 38°08' E 013°22'2 2.2
2016-Aug-23 13:33N 38°09' E 013°24'2221.6
2016-Aug-23 12:34N 38°28' E 013°12'29024.0
2016-Aug-23 00:29N 42°35' E 009°51'2624.1
2016-Aug-22 23:24N 42°59' E 009°38'2024.1
2016-Aug-22 22:33N 43°18' E 009°29'2423.9
2016-Aug-22 21:34N 43°40' E 009°17'2424.0
2016-Aug-22 20:34N 44°03' E 009°06'2221.8
2016-Aug-22 19:33N 44°24' E 008°56'1 1.1
2016-Aug-22 18:33N 44°25' E 008°55'0 0.0
2016-Aug-22 17:27N 44°25' E 008°55'0 0.0
2016-Aug-22 16:32N 44°25' E 008°55'0 0.0
2016-Aug-22 15:30N 44°25' E 008°55'2 2.0
2016-Aug-22 14:33N 44°23' E 008°57'2019.8
2016-Aug-22 13:34N 44°05' E 009°07'2524.6
2016-Aug-22 12:33N 43°42' E 009°19'2525.0
2016-Aug-22 11:33N 43°18' E 009°30'27424.3
2016-Aug-22 00:17N 39°20' E 012°30'4524.8
2016-Aug-21 22:28N 38°42' E 013°01'2325.3
2016-Aug-21 21:34N 38°22' E 013°17'1514.7
2016-Aug-21 20:32N 38°08' E 013°22'0 0.0
2016-Aug-21 19:31N 38°08' E 013°22'0 0.0
2016-Aug-21 18:31N 38°08' E 013°22'0 0.0
2016-Aug-21 17:33N 38°08' E 013°22'0 0.0
2016-Aug-21 16:30N 38°08' E 013°22'0 0.0
2016-Aug-21 15:32N 38°08' E 013°22'0 0.0
2016-Aug-21 14:34N 38°08' E 013°22'1010.4
2016-Aug-21 13:34N 38°18' E 013°20'2221.8
2016-Aug-21 12:33N 38°37' E 013°05'2722.4
2016-Aug-21 11:20N 38°60' E 012°47'1822.7
2016-Aug-21 10:33N 39°15' E 012°34'4522.6
2016-Aug-21 08:33N 39°53' E 012°02'15822.7
2016-Aug-21 01:34N 42°07' E 010°11'2622.7
2016-Aug-21 00:25N 42°30' E 009°53'2122.6
2016-Aug-20 23:28N 42°50' E 009°42'2222.6
2016-Aug-20 22:29N 43°11' E 009°33'2122.1
2016-Aug-20 21:34N 43°30' E 009°23'2222.4
2016-Aug-20 20:33N 43°51' E 009°12'2322.8
2016-Aug-20 19:33N 44°12' E 009°00'1312.2
2016-Aug-20 18:29N 44°25' E 008°55'0 0.0
2016-Aug-20 17:28N 44°25' E 008°55'0 0.0
2016-Aug-20 16:31N 44°25' E 008°55'0 0.0
2016-Aug-20 15:33N 44°25' E 008°55'0 0.0
2016-Aug-20 14:34N 44°25' E 008°55'5 5.0
2016-Aug-20 13:33N 44°20' E 008°59'2322.5
2016-Aug-20 12:34N 43°59' E 009°10'2323.0
2016-Aug-20 11:34N 43°38' E 009°21'2423.3
2016-Aug-20 10:33N 43°15' E 009°32'3122.9
2016-Aug-20 09:11N 42°46' E 009°46'28824.1
2016-Aug-19 21:14N 38°39' E 013°03'1725.3
2016-Aug-19 20:33N 38°25' E 013°14'1918.7
2016-Aug-19 19:33N 38°07' E 013°23'1 0.6
2016-Aug-19 18:34N 38°08' E 013°22'0 0.0
2016-Aug-19 17:33N 38°08' E 013°22'0 0.0
2016-Aug-19 16:33N 38°08' E 013°22'0 0.0
2016-Aug-19 15:32N 38°08' E 013°22'0 0.0
2016-Aug-19 14:33N 38°08' E 013°22'1 1.3
2016-Aug-19 13:33N 38°08' E 013°24'1515.0
2016-Aug-19 12:33N 38°22' E 013°18'26023.6
2016-Aug-19 01:33N 42°01' E 010°15'2424.5
2016-Aug-19 00:33N 42°22' E 009°58'2724.4
2016-Aug-18 23:27N 42°47' E 009°45'2324.4
2016-Aug-18 22:31N 43°08' E 009°35'2324.0
2016-Aug-18 21:33N 43°30' E 009°23'2424.3
2016-Aug-18 20:34N 43°53' E 009°12'2524.5
2016-Aug-18 19:34N 44°16' E 009°00'10 8.8
2016-Aug-18 18:28N 44°25' E 008°55'0 0.0
2016-Aug-18 17:18N 44°25' E 008°55'0 0.0
2016-Aug-18 16:30N 44°25' E 008°55'0 0.0
2016-Aug-18 15:24N 44°25' E 008°55'0 0.0
2016-Aug-18 14:33N 44°25' E 008°55'1312.7
2016-Aug-18 13:33N 44°13' E 009°03'2524.5
2016-Aug-18 12:34N 43°50' E 009°15'2524.8
2016-Aug-18 11:33N 43°27' E 009°26'34024.3
2016-Aug-17 21:34N 38°31' E 013°10'2525.1
2016-Aug-17 20:34N 38°09' E 013°26'3 3.1
2016-Aug-17 19:32N 38°08' E 013°22'0 0.0
2016-Aug-17 18:32N 38°08' E 013°22'0 0.0
2016-Aug-17 17:31N 38°08' E 013°22'0 0.0
2016-Aug-17 16:31N 38°08' E 013°22'0 0.0
2016-Aug-17 15:31N 38°08' E 013°22'0 0.0
2016-Aug-17 14:33N 38°08' E 013°22'7 7.5
2016-Aug-17 13:34N 38°15' E 013°22'2623.3
2016-Aug-17 12:27N 38°37' E 013°04'29324.2
2016-Aug-17 00:20N 42°48' E 009°45'1316.6
2016-Aug-16 23:33N 43°00' E 009°39'1312.2
2016-Aug-16 22:27N 43°12' E 009°32'2123.2
2016-Aug-16 21:34N 43°32' E 009°22'2424.2
2016-Aug-16 20:34N 43°55' E 009°11'2424.1
2016-Aug-16 19:33N 44°17' E 008°60'8 7.9
2016-Aug-16 18:33N 44°25' E 008°55'0 0.0
2016-Aug-16 17:29N 44°25' E 008°55'0 0.0
2016-Aug-16 16:32N 44°25' E 008°55'0 0.0
2016-Aug-16 15:31N 44°25' E 008°55'0 0.0
2016-Aug-16 14:34N 44°25' E 008°55'0 0.0
2016-Aug-16 13:33N 44°25' E 008°55'0 0.0
2016-Aug-16 12:33N 44°25' E 008°55'0 0.0
2016-Aug-16 11:33N 44°25' E 008°55'0 0.0
2016-Aug-16 10:33N 44°25' E 008°55'0 0.0
2016-Aug-16 09:33N 44°25' E 008°55'0 0.0
2016-Aug-16 08:33N 44°25' E 008°55'0 0.0
2016-Aug-16 07:33N 44°25' E 008°55'0 0.0
2016-Aug-16 04:34N 44°25' E 008°55'0 0.0
2016-Aug-16 03:34N 44°25' E 008°55'0 0.0
2016-Aug-16 02:33N 44°25' E 008°55'0 0.0
2016-Aug-16 01:34N 44°25' E 008°55'0 0.0
2016-Aug-16 00:33N 44°25' E 008°55'0 0.0
2016-Aug-15 23:33N 44°25' E 008°55'0 0.0
2016-Aug-15 22:34N 44°25' E 008°55'0 0.0
2016-Aug-15 21:33N 44°25' E 008°55'0 0.0
2016-Aug-15 20:33N 44°25' E 008°55'0 0.0
2016-Aug-15 19:33N 44°25' E 008°55'0 0.0
2016-Aug-15 18:33N 44°25' E 008°55'0 0.0
2016-Aug-15 17:34N 44°25' E 008°55'0 0.0
2016-Aug-15 16:33N 44°25' E 008°55'0 0.0
2016-Aug-15 15:34N 44°25' E 008°55'2 1.6
2016-Aug-15 14:34N 44°23' E 008°56'2019.9
2016-Aug-15 13:33N 44°05' E 009°07'2322.9
2016-Aug-15 12:34N 43°43' E 009°18'2323.0
2016-Aug-15 11:34N 43°22' E 009°30'2523.0
2016-Aug-15 10:28N 42°58' E 009°40'2322.9
2016-Aug-15 09:28N 42°37' E 009°51'2323.0
2016-Aug-15 08:27N 42°15' E 010°03'25623.0
2016-Aug-14 21:19N 38°38' E 013°03'1823.5
2016-Aug-14 20:34N 38°23' E 013°16'1716.5
2016-Aug-14 19:34N 38°08' E 013°22'0 0.3
2016-Aug-14 18:33N 38°08' E 013°22'0 0.0
2016-Aug-14 17:33N 38°08' E 013°22'0 0.0
2016-Aug-14 16:32N 38°08' E 013°22'0 0.0
2016-Aug-14 15:32N 38°08' E 013°22'  
Track history (hours):
 
Tides and Currents Weather Stations Pressure Air Temp Water Temp Dewpoint Dewpoint Depression Visibility Wind Speed Wind Dir Waves Ship Positions

La Suprema

Last reported at 2016-Aug-24 15:28 UTC. Time now 2016-Aug-24 16:17 UTC.
Position N 44°25' E 008°55'.

Length 211 m; draft 7.5 m.

Type: Passenger vessel. MMSI: 247083700.

Date/timePositionNaut miles runAvg speedWind from/ knotsBaromVisibWave heightAir tempDewpointWater temp
2016-Aug-24 15:28N 44°25' E 008°55'0 0.1
2016-Aug-24 14:33N 44°24' E 008°55'1716.7
2016-Aug-24 13:33N 44°09' E 009°05'2424.3
2016-Aug-24 12:34N 43°47' E 009°16'2424.3
2016-Aug-24 11:34N 43°24' E 009°27'2524.0
2016-Aug-24 10:32N 43°01' E 009°39'31023.9
2016-Aug-23 21:33N 38°34' E 013°07'2424.3
2016-Aug-23 20:33N 38°13' E 013°24'6 5.7
2016-Aug-23 19:33N 38°08' E 013°22'0 0.0
2016-Aug-23 18:32N 38°08' E 013°22'0 0.0
2016-Aug-23 17:32N 38°08' E 013°22'0 0.0
2016-Aug-23 16:32N 38°08' E 013°22'0 0.0
2016-Aug-23 15:31N 38°08' E 013°22'0 0.0
2016-Aug-23 14:28N 38°08' E 013°22'2 2.2
2016-Aug-23 13:33N 38°09' E 013°24'2221.6
2016-Aug-23 12:34N 38°28' E 013°12'29024.0
2016-Aug-23 00:29N 42°35' E 009°51'2624.1
2016-Aug-22 23:24N 42°59' E 009°38'2024.1
2016-Aug-22 22:33N 43°18' E 009°29'2423.9
2016-Aug-22 21:34N 43°40' E 009°17'2424.0
2016-Aug-22 20:34N 44°03' E 009°06'2221.8
2016-Aug-22 19:33N 44°24' E 008°56'1 1.1
2016-Aug-22 18:33N 44°25' E 008°55'0 0.0
2016-Aug-22 17:27N 44°25' E 008°55'0 0.0
2016-Aug-22 16:32N 44°25' E 008°55'0 0.0
2016-Aug-22 15:30N 44°25' E 008°55'2 2.0
2016-Aug-22 14:33N 44°23' E 008°57'2019.8
2016-Aug-22 13:34N 44°05' E 009°07'2524.6
2016-Aug-22 12:33N 43°42' E 009°19'2525.0
2016-Aug-22 11:33N 43°18' E 009°30'27424.3
2016-Aug-22 00:17N 39°20' E 012°30'4524.8
2016-Aug-21 22:28N 38°42' E 013°01'2325.3
2016-Aug-21 21:34N 38°22' E 013°17'1514.7
2016-Aug-21 20:32N 38°08' E 013°22'0 0.0
2016-Aug-21 19:31N 38°08' E 013°22'0 0.0
2016-Aug-21 18:31N 38°08' E 013°22'0 0.0
2016-Aug-21 17:33N 38°08' E 013°22'0 0.0
2016-Aug-21 16:30N 38°08' E 013°22'0 0.0
2016-Aug-21 15:32N 38°08' E 013°22'0 0.0
2016-Aug-21 14:34N 38°08' E 013°22'1010.4
2016-Aug-21 13:34N 38°18' E 013°20'2221.8
2016-Aug-21 12:33N 38°37' E 013°05'2722.4
2016-Aug-21 11:20N 38°60' E 012°47'1822.7
2016-Aug-21 10:33N 39°15' E 012°34'4522.6
2016-Aug-21 08:33N 39°53' E 012°02'15822.7
2016-Aug-21 01:34N 42°07' E 010°11'2622.7
2016-Aug-21 00:25N 42°30' E 009°53'2122.6
2016-Aug-20 23:28N 42°50' E 009°42'2222.6
2016-Aug-20 22:29N 43°11' E 009°33'2122.1
2016-Aug-20 21:34N 43°30' E 009°23'2222.4
2016-Aug-20 20:33N 43°51' E 009°12'2322.8
2016-Aug-20 19:33N 44°12' E 009°00'1312.2
2016-Aug-20 18:29N 44°25' E 008°55'0 0.0
2016-Aug-20 17:28N 44°25' E 008°55'0 0.0
2016-Aug-20 16:31N 44°25' E 008°55'0 0.0
2016-Aug-20 15:33N 44°25' E 008°55'0 0.0
2016-Aug-20 14:34N 44°25' E 008°55'5 5.0
2016-Aug-20 13:33N 44°20' E 008°59'2322.5
2016-Aug-20 12:34N 43°59' E 009°10'2323.0
2016-Aug-20 11:34N 43°38' E 009°21'2423.3
2016-Aug-20 10:33N 43°15' E 009°32'3122.9
2016-Aug-20 09:11N 42°46' E 009°46'28824.1
2016-Aug-19 21:14N 38°39' E 013°03'1725.3
2016-Aug-19 20:33N 38°25' E 013°14'1918.7
2016-Aug-19 19:33N 38°07' E 013°23'1 0.6
2016-Aug-19 18:34N 38°08' E 013°22'0 0.0
2016-Aug-19 17:33N 38°08' E 013°22'0 0.0
2016-Aug-19 16:33N 38°08' E 013°22'0 0.0
2016-Aug-19 15:32N 38°08' E 013°22'0 0.0
2016-Aug-19 14:33N 38°08' E 013°22'1 1.3
2016-Aug-19 13:33N 38°08' E 013°24'1515.0
2016-Aug-19 12:33N 38°22' E 013°18'26023.6
2016-Aug-19 01:33N 42°01' E 010°15'2424.5
2016-Aug-19 00:33N 42°22' E 009°58'2724.4
2016-Aug-18 23:27N 42°47' E 009°45'2324.4
2016-Aug-18 22:31N 43°08' E 009°35'2324.0
2016-Aug-18 21:33N 43°30' E 009°23'2424.3
2016-Aug-18 20:34N 43°53' E 009°12'2524.5
2016-Aug-18 19:34N 44°16' E 009°00'10 8.8
2016-Aug-18 18:28N 44°25' E 008°55'0 0.0
2016-Aug-18 17:18N 44°25' E 008°55'0 0.0
2016-Aug-18 16:30N 44°25' E 008°55'0 0.0
2016-Aug-18 15:24N 44°25' E 008°55'0 0.0
2016-Aug-18 14:33N 44°25' E 008°55'1312.7
2016-Aug-18 13:33N 44°13' E 009°03'2524.5
2016-Aug-18 12:34N 43°50' E 009°15'2524.8
2016-Aug-18 11:33N 43°27' E 009°26'34024.3
2016-Aug-17 21:34N 38°31' E 013°10'2525.1
2016-Aug-17 20:34N 38°09' E 013°26'3 3.1
2016-Aug-17 19:32N 38°08' E 013°22'0 0.0
2016-Aug-17 18:32N 38°08' E 013°22'0 0.0
2016-Aug-17 17:31N 38°08' E 013°22'0 0.0
2016-Aug-17 16:31N 38°08' E 013°22'0 0.0
2016-Aug-17 15:31N 38°08' E 013°22'0 0.0
2016-Aug-17 14:33N 38°08' E 013°22'7 7.5
2016-Aug-17 13:34N 38°15' E 013°22'2623.3
2016-Aug-17 12:27N 38°37' E 013°04'29324.2
2016-Aug-17 00:20N 42°48' E 009°45'1316.6
2016-Aug-16 23:33N 43°00' E 009°39'1312.2
2016-Aug-16 22:27N 43°12' E 009°32'2123.2
2016-Aug-16 21:34N 43°32' E 009°22'2424.2
2016-Aug-16 20:34N 43°55' E 009°11'2424.1
2016-Aug-16 19:33N 44°17' E 008°60'8 7.9
2016-Aug-16 18:33N 44°25' E 008°55'0 0.0
2016-Aug-16 17:29N 44°25' E 008°55'0 0.0
2016-Aug-16 16:32N 44°25' E 008°55'0 0.0
2016-Aug-16 15:31N 44°25' E 008°55'0 0.0
2016-Aug-16 14:34N 44°25' E 008°55'0 0.0
2016-Aug-16 13:33N 44°25' E 008°55'0 0.0
2016-Aug-16 12:33N 44°25' E 008°55'0 0.0
2016-Aug-16 11:33N 44°25' E 008°55'0 0.0
2016-Aug-16 10:33N 44°25' E 008°55'0 0.0
2016-Aug-16 09:33N 44°25' E 008°55'0 0.0
2016-Aug-16 08:33N 44°25' E 008°55'0 0.0
2016-Aug-16 07:33N 44°25' E 008°55'0 0.0
2016-Aug-16 04:34N 44°25' E 008°55'0 0.0
2016-Aug-16 03:34N 44°25' E 008°55'0 0.0
2016-Aug-16 02:33N 44°25' E 008°55'0 0.0
2016-Aug-16 01:34N 44°25' E 008°55'0 0.0
2016-Aug-16 00:33N 44°25' E 008°55'0 0.0
2016-Aug-15 23:33N 44°25' E 008°55'0 0.0
2016-Aug-15 22:34N 44°25' E 008°55'0 0.0
2016-Aug-15 21:33N 44°25' E 008°55'0 0.0
2016-Aug-15 20:33N 44°25' E 008°55'0 0.0
2016-Aug-15 19:33N 44°25' E 008°55'0 0.0
2016-Aug-15 18:33N 44°25' E 008°55'0 0.0
2016-Aug-15 17:34N 44°25' E 008°55'0 0.0
2016-Aug-15 16:33N 44°25' E 008°55'0 0.0
2016-Aug-15 15:34N 44°25' E 008°55'2 1.6
2016-Aug-15 14:34N 44°23' E 008°56'2019.9
2016-Aug-15 13:33N 44°05' E 009°07'2322.9
2016-Aug-15 12:34N 43°43' E 009°18'2323.0
2016-Aug-15 11:34N 43°22' E 009°30'2523.0
2016-Aug-15 10:28N 42°58' E 009°40'2322.9
2016-Aug-15 09:28N 42°37' E 009°51'2323.0
2016-Aug-15 08:27N 42°15' E 010°03'25623.0
2016-Aug-14 21:19N 38°38' E 013°03'1823.5
2016-Aug-14 20:34N 38°23' E 013°16'1716.5
2016-Aug-14 19:34N 38°08' E 013°22'0 0.3
2016-Aug-14 18:33N 38°08' E 013°22'0 0.0
2016-Aug-14 17:33N 38°08' E 013°22'0 0.0
2016-Aug-14 16:32N 38°08' E 013°22'0 0.0
2016-Aug-14 15:32N 38°08' E 013°22'  

Dump ship's entire track history